Last 7 Days

Suisun Valley

Hourly Data | America/Los_Angeles
as of 12/1/21 12:54 AM PST
Date & Time Temp (°F) RH (%) Dew Pt (°F) Wind Spd (mph) Wind Dir (°) Wind Gust (mph) Wind Gst Dir (°) Latest Rain (In) Daily Rain (In) Daily Min Temp (°F) Daily Max Temp (°F)
12/1/21 - 0000 46.0 98 45.4 1.8 NNW | 327 5.1 WNW | 298 0.00 0.00 42.0 70.0
11/30/21 - 2300 47.0 98 46.4 1.8 NW | 321 4.1 NW | 322 0.00 0.00 42.0 70.0
11/30/21 - 2200 47.7 97 47.0 2.0 NW | 326 4.8 NW | 321 0.00 0.00 42.0 70.0
11/30/21 - 2100 48.5 97 47.6 1.9 NW | 326 4.4 NW | 311 0.00 0.00 42.0 70.0
11/30/21 - 2000 49.6 96 48.6 1.8 NNW | 327 4.4 NW | 314 0.00 0.00 42.0 70.0
11/30/21 - 1900 50.9 95 49.4 0.7 NNW | 327 3.4 NW | 313 0.00 0.00 42.0 70.0
11/30/21 - 1800 53.2 89 50.2 0.0 NNW | 344 1.4 N | 350 0.00 0.00 42.0 70.0
11/30/21 - 1700 61.5 73 52.6 0.2 S | 171 3.1 S | 181 0.00 0.00 42.0 70.0
11/30/21 - 1600 67.1 59 52.3 2.4 S | 172 6.1 S | 184 0.00 0.00 42.0 70.0
11/30/21 - 1500 69.2 56 52.9 1.7 S | 178 5.1 S | 181 0.00 0.00 42.0 70.0
11/30/21 - 1400 68.4 58 53.4 2.1 SSE | 159 6.8 SE | 128 0.00 0.00 42.0 69.3
11/30/21 - 1300 66.9 63 53.8 1.1 SSE | 157 6.1 SE | 144 0.00 0.00 42.0 68.4
11/30/21 - 1200 64.2 69 53.8 2.9 SE | 142 7.1 SE | 146 0.00 0.00 42.0 65.4
11/30/21 - 1100 61.0 76 53.3 1.6 SE | 135 5.1 SSE | 166 0.00 0.00 42.0 63.2
11/30/21 - 1000 55.4 89 52.2 0.2 SSE | 166 4.1 SSW | 194 0.00 0.00 42.0 58.8
11/30/21 - 0900 48.8 99 48.5 0.4 NNW | 346 3.4 WNW | 301 0.00 0.00 42.0 51.7
11/30/21 - 0800 43.2 99 42.9 0.2 NNW | 336 2.4 N | 351 0.00 0.00 42.0 49.2
11/30/21 - 0700 44.2 99 43.8 0.6 NW | 322 4.8 NW | 312 0.00 0.00 43.0 49.2
11/30/21 - 0600 43.8 98 43.4 1.1 NNW | 328 3.4 N | 3 0.00 0.00 43.0 49.2
11/30/21 - 0500 44.3 98 43.9 0.4 N | 352 3.4 N | 6 0.00 0.00 43.1 49.2
11/30/21 - 0400 46.2 98 45.6 0.9 NNW | 327 4.4 NNW | 331 0.00 0.00 44.3 49.2
11/30/21 - 0300 47.7 98 47.1 1.8 NW | 317 5.4 NW | 307 0.00 0.00 47.1 49.2
11/30/21 - 0200 48.7 98 48.2 1.3 WNW | 302 3.8 WNW | 299 0.00 0.00 48.3 49.2
11/30/21 - 0100 48.8 98 48.3 2.5 NW | 317 5.8 NW | 309 0.00 0.00 48.6 49.2
11/30/21 - 0000 49.6 98 49.0 2.5 NW | 316 4.8 NW | 304 0.00 0.00 44.3 69.8
11/29/21 - 2300 49.9 98 49.4 2.3 NW | 313 5.1 NNW | 331 0.00 0.00 44.3 69.8
11/29/21 - 2200 50.6 98 50.0 2.4 NW | 320 4.8 NNW | 332 0.00 0.00 44.3 69.8
11/29/21 - 2100 50.8 98 50.1 1.8 NW | 324 5.4 NNW | 333 0.00 0.00 44.3 69.8
11/29/21 - 2000 51.7 97 50.8 0.7 NW | 318 3.4 NNW | 330 0.00 0.00 44.3 69.8
11/29/21 - 1900 53.2 96 52.1 1.0 NW | 318 4.1 N | 352 0.00 0.00 44.3 69.8
11/29/21 - 1800 55.4 91 52.9 0.5 NW | 323 3.1 WNW | 299 0.00 0.00 44.3 69.8
11/29/21 - 1700 63.4 75 55.3 0.2 S | 179 2.7 SSW | 194 0.00 0.00 44.3 69.8
11/29/21 - 1600 68.5 65 56.4 1.0 S | 172 4.4 S | 186 0.00 0.00 44.3 69.8
11/29/21 - 1500 69.1 64 56.3 1.7 S | 183 5.4 SSW | 206 0.00 0.00 44.3 69.8
11/29/21 - 1400 68.4 64 55.9 1.4 S | 191 5.1 S | 169 0.00 0.00 44.3 69.8
11/29/21 - 1300 66.4 66 54.8 1.7 SSW | 200 6.4 SSW | 205 0.00 0.00 44.3 67.1
11/29/21 - 1200 64.5 68 53.7 0.9 SSE | 160 5.1 SSE | 165 0.00 0.00 44.3 66.0
11/29/21 - 1100 60.3 75 52.4 0.9 SE | 137 5.8 SE | 142 0.00 0.00 44.3 63.2
11/29/21 - 1000 55.9 85 51.4 1.3 SSE | 150 5.1 S | 170 0.00 0.00 44.3 57.9
11/29/21 - 0900 51.4 96 50.4 0.8 S | 169 4.4 S | 185 0.00 0.00 44.3 54.0
11/29/21 - 0800 45.9 98 45.5 1.0 NW | 318 3.8 NW | 306 0.00 0.00 44.3 48.5
11/29/21 - 0700 44.7 98 44.2 1.9 NW | 325 4.4 NW | 318 0.00 0.00 44.3 48.5
11/29/21 - 0600 45.6 98 45.0 1.0 NW | 323 3.4 NW | 326 0.00 0.00 45.1 48.5
11/29/21 - 0500 46.3 98 45.7 1.5 NW | 323 4.4 NW | 318 0.00 0.00 45.9 48.5
11/29/21 - 0400 46.6 98 45.9 2.1 NW | 314 4.8 NW | 320 0.00 0.00 46.3 48.5
11/29/21 - 0300 47.2 97 46.5 2.3 NW | 321 4.8 NNW | 334 0.00 0.00 46.8 48.5
11/29/21 - 0200 47.8 97 47.0 2.6 NW | 323 6.1 NNW | 339 0.00 0.00 47.3 48.5
11/29/21 - 0100 48.2 97 47.4 2.1 NW | 317 4.4 N | 2 0.00 0.00 47.8 48.5
11/29/21 - 0000 48.8 97 48.0 2.4 NNW | 331 5.8 NNW | 328 0.00 0.00 41.4 68.6
11/28/21 - 2300 49.2 97 48.3 2.1 NW | 315 4.1 NNW | 329 0.00 0.00 41.4 68.6
11/28/21 - 2200 49.8 96 48.8 1.9 NW | 317 5.1 NNW | 345 0.00 0.00 41.4 68.6
11/28/21 - 2100 50.5 96 49.3 1.5 NW | 324 3.8 WNW | 302 0.00 0.00 41.4 68.6
11/28/21 - 2000 51.4 95 50.0 1.1 NW | 315 3.1 WNW | 303 0.00 0.00 41.4 68.6
11/28/21 - 1900 52.7 93 50.7 0.6 NW | 324 3.1 WNW | 298 0.00 0.00 41.4 68.6
11/28/21 - 1800 55.5 86 51.2 0.0 N | 0 0.0 SW | 227 0.00 0.00 41.4 68.6
11/28/21 - 1700 62.8 69 52.4 1.1 SSW | 203 5.8 SSW | 192 0.00 0.00 41.4 68.6
11/28/21 - 1600 67.8 59 53.1 2.1 SSW | 212 5.1 SW | 221 0.00 0.00 41.4 68.6
11/28/21 - 1500 67.6 60 53.1 3.1 SSW | 202 6.8 SSW | 210 0.00 0.00 41.4 68.6
11/28/21 - 1400 67.8 58 52.6 3.6 S | 191 8.1 SSW | 200 0.00 0.00 41.4 68.6
11/28/21 - 1300 66.9 57 51.2 2.1 SE | 142 6.4 ESE | 104 0.00 0.00 41.4 68.3
11/28/21 - 1200 63.1 66 51.4 1.9 SSW | 203 6.1 S | 178 0.00 0.00 41.4 65.4
11/28/21 - 1100 58.7 72 49.8 1.3 SSW | 198 4.8 SSW | 206 0.00 0.00 41.4 60.7
11/28/21 - 1000 53.6 82 48.2 0.5 S | 178 3.8 SSW | 201 0.00 0.00 41.4 56.3
11/28/21 - 0900 47.6 96 46.5 0.1 NNW | 341 2.1 NNW | 340 0.00 0.00 41.4 50.8
11/28/21 - 0800 42.3 98 41.7 0.0 NNW | 334 2.4 NW | 317 0.00 0.00 41.4 47.6
11/28/21 - 0700 43.4 97 42.6 0.6 NW | 312 3.4 NNW | 330 0.00 0.00 41.4 47.6
11/28/21 - 0600 42.6 96 41.6 0.2 NNW | 329 3.8 NW | 320 0.00 0.00 41.4 47.6
11/28/21 - 0500 45.2 96 44.2 0.6 NW | 323 3.8 WNW | 296 0.00 0.00 43.4 47.6
11/28/21 - 0400 46.1 96 45.1 2.4 NW | 319 5.4 WNW | 297 0.00 0.00 45.8 47.6
11/28/21 - 0300 46.3 97 45.4 2.3 NW | 320 4.4 NW | 306 0.00 0.00 46.0 47.6
11/28/21 - 0200 46.3 96 45.4 2.0 NW | 324 4.4 NNW | 330 0.00 0.00 46.0 47.6
11/28/21 - 0100 46.8 96 45.6 1.3 NW | 321 4.1 NNW | 333 0.00 0.00 46.0 47.6
11/28/21 - 0000 47.8 94 46.3 1.3 NW | 308 5.4 NW | 316 0.00 0.00 39.0 67.6
11/27/21 - 2300 48.4 94 46.7 2.2 NW | 316 4.4 WNW | 301 0.00 0.00 39.0 67.6
11/27/21 - 2200 49.5 92 47.2 2.4 NW | 326 5.1 NW | 309 0.00 0.00 39.0 67.6
11/27/21 - 2100 49.6 92 47.3 2.3 NW | 324 4.8 N | 2 0.00 0.00 39.0 67.6
11/27/21 - 2000 50.6 90 47.8 2.1 NW | 319 4.1 NNW | 338 0.00 0.00 39.0 67.6
11/27/21 - 1900 52.0 88 48.6 1.4 NW | 324 3.8 N | 354 0.00 0.00 39.0 67.6
11/27/21 - 1800 53.3 86 49.2 0.2 NW | 321 3.1 NW | 304 0.00 0.00 39.0 67.6
11/27/21 - 1700 60.8 67 49.5 0.0 N | 0 0.0 SE | 136 0.00 0.00 39.0 67.6
11/27/21 - 1600 66.1 52 48.0 0.8 SE | 138 4.4 SE | 136 0.00 0.00 39.0 67.6
11/27/21 - 1500 67.0 50 47.7 1.7 SSE | 166 6.1 SSW | 198 0.00 0.00 39.0 67.6
11/27/21 - 1400 66.7 49 47.0 1.4 SSE | 154 5.4 SE | 139 0.00 0.00 39.0 67.4
11/27/21 - 1300 66.0 49 46.5 1.6 SSE | 155 5.8 SSE | 161 0.00 0.00 39.0 66.8
11/27/21 - 1200 62.9 57 47.4 1.2 SSW | 207 5.1 SSW | 196 0.00 0.00 39.0 64.3
11/27/21 - 1100 60.2 59 46.0 1.2 SSE | 166 5.8 SE | 131 0.00 0.00 39.0 62.2
11/27/21 - 1000 54.5 69 44.6 0.0 N | 0 0.0 N | 0 0.00 0.00 39.0 57.6
11/27/21 - 0900 47.7 87 44.0 0.4 N | 355 2.7 N | 7 0.00 0.00 39.0 51.0
11/27/21 - 0800 41.4 97 40.6 0.9 NNW | 336 3.8 WNW | 296 0.00 0.00 39.0 46.6
11/27/21 - 0700 39.4 96 38.4 0.0 N | 358 1.7 N | 0 0.00 0.00 39.0 46.6
11/27/21 - 0600 41.2 95 40.0 0.2 NW | 306 2.7 WNW | 297 0.00 0.00 40.0 46.6
11/27/21 - 0500 42.3 94 40.8 1.0 NNW | 336 4.1 N | 352 0.00 0.00 41.9 46.6
11/27/21 - 0400 43.0 94 41.5 0.6 NW | 311 3.1 NNW | 338 0.00 0.00 42.5 46.6
11/27/21 - 0300 43.2 93 41.4 0.4 NNW | 340 2.7 NW | 320 0.00 0.00 42.5 46.6
11/27/21 - 0200 45.0 90 42.3 0.4 NW | 323 3.4 NW | 308 0.00 0.00 44.4 46.6
11/27/21 - 0100 45.8 89 42.8 0.9 NW | 319 4.1 NW | 316 0.00 0.00 45.4 46.6
11/27/21 - 0000 46.6 88 43.3 1.1 NW | 315 3.8 NNW | 328 0.00 0.00 37.4 67.4
11/26/21 - 2300 47.2 88 43.8 1.5 NW | 317 3.8 NW | 309 0.00 0.00 37.4 67.4
11/26/21 - 2200 47.7 88 44.4 1.4 NW | 317 3.8 NW | 308 0.00 0.00 37.4 67.4
11/26/21 - 2100 48.1 89 44.9 1.7 NW | 321 4.4 NNW | 330 0.00 0.00 37.4 67.4
11/26/21 - 2000 48.5 89 45.4 0.7 NW | 325 3.8 WNW | 296 0.00 0.00 37.4 67.4
11/26/21 - 1900 50.6 86 46.6 0.2 NW | 305 3.1 W | 272 0.00 0.00 37.4 67.4
11/26/21 - 1800 53.7 80 47.8 0.2 NNW | 348 2.7 N | 0 0.00 0.00 37.4 67.4
11/26/21 - 1700 59.6 60 45.6 0.4 SSW | 207 4.1 SW | 218 0.00 0.00 37.4 67.4
11/26/21 - 1600 64.6 48 44.4 0.4 S | 181 4.4 S | 191 0.00 0.00 37.4 67.4
11/26/21 - 1500 66.7 45 44.5 1.4 SSE | 157 5.1 SSE | 151 0.00 0.00 37.4 67.4
11/26/21 - 1400 65.7 48 45.4 1.7 SE | 144 6.4 SE | 139 0.00 0.00 37.4 66.6
11/26/21 - 1300 64.2 51 45.9 1.8 SSE | 148 5.4 SE | 127 0.00 0.00 37.4 65.4
11/26/21 - 1200 61.5 52 44.0 1.3 SE | 142 6.4 SE | 128 0.00 0.00 37.4 63.0
11/26/21 - 1100 57.6 61 44.1 0.6 SE | 146 4.4 SE | 140 0.00 0.00 37.4 59.9
11/26/21 - 1000 52.8 67 42.3 0.6 SSE | 148 4.1 S | 188 0.00 0.00 37.4 55.1
11/26/21 - 0900 45.8 82 40.5 0.5 NNW | 344 3.1 NNW | 345 0.00 0.00 37.4 49.8
11/26/21 - 0800 38.5 95 37.1 0.8 NNW | 330 3.8 NW | 317 0.00 0.00 37.4 44.3
11/26/21 - 0700 39.2 92 37.1 0.9 NW | 305 3.8 NW | 315 0.00 0.00 37.8 44.3
11/26/21 - 0600 40.2 92 38.2 1.3 NW | 317 4.4 NNW | 342 0.00 0.00 39.8 44.3
11/26/21 - 0500 41.1 92 39.0 1.4 NW | 318 4.4 WNW | 282 0.00 0.00 40.2 44.3
11/26/21 - 0400 42.2 91 39.8 0.2 NW | 313 2.4 WNW | 302 0.00 0.00 41.3 44.3
11/26/21 - 0300 43.2 89 40.2 0.7 NNW | 328 4.8 NW | 304 0.00 0.00 42.8 44.3
11/26/21 - 0200 43.5 88 40.2 0.8 NW | 313 3.8 NW | 316 0.00 0.00 43.2 44.3
11/26/21 - 0100 44.0 87 40.4 1.3 NW | 322 4.1 NNW | 345 0.00 0.00 43.6 44.3
11/26/21 - 0000 44.4 86 40.4 1.2 NW | 322 4.4 NNW | 340 0.00 0.00 33.9 65.8
11/25/21 - 2300 44.4 86 40.6 1.7 NW | 322 4.4 NNW | 337 0.00 0.00 33.9 65.8
11/25/21 - 2200 44.3 86 40.5 1.5 NW | 318 4.4 NW | 314 0.00 0.00 33.9 65.8
11/25/21 - 2100 43.9 87 40.2 1.4 NW | 317 4.4 NW | 314 0.00 0.00 33.9 65.8
11/25/21 - 2000 43.8 87 40.1 1.6 NW | 316 4.1 NW | 304 0.00 0.00 33.9 65.8
11/25/21 - 1900 47.5 83 42.5 0.5 NW | 307 3.8 SW | 235 0.00 0.00 33.9 65.8
11/25/21 - 1800 52.2 72 43.3 1.7 SW | 215 4.1 SW | 230 0.00 0.00 33.9 65.8
11/25/21 - 1700 58.1 50 39.6 1.9 SSW | 212 4.8 SW | 230 0.00 0.00 33.9 65.8
11/25/21 - 1600 64.1 38 38.0 1.6 SE | 124 5.1 SE | 125 0.00 0.00 33.9 65.8
11/25/21 - 1500 65.2 35 36.9 3.2 ESE | 119 7.1 ESE | 116 0.00 0.00 33.9 65.8
11/25/21 - 1400 63.8 36 36.4 3.9 ESE | 103 8.4 ESE | 107 0.00 0.00 33.9 64.8
11/25/21 - 1300 62.1 36 35.0 4.9 ESE | 104 10.1 SE | 126 0.00 0.00 33.9 63.1
11/25/21 - 1200 60.2 40 35.5 5.6 ESE | 103 11.1 E | 94 0.00 0.00 33.9 61.5
11/25/21 - 1100 55.7 56 39.8 3.4 SSE | 164 9.8 ESE | 112 0.00 0.00 33.9 59.1
11/25/21 - 1000 49.4 71 40.6 1.2 SSE | 162 4.4 SSE | 160 0.00 0.00 33.9 51.9
11/25/21 - 0900 42.2 82 36.9 0.6 WSW | 251 3.4 NNW | 346 0.00 0.00 33.9 47.2
11/25/21 - 0800 36.0 94 34.4 0.8 NW | 320 3.4 NW | 324 0.00 0.00 33.9 38.4
11/25/21 - 0700 34.9 95 33.6 1.4 NW | 321 3.8 NW | 325 0.00 0.00 33.9 38.2
11/25/21 - 0600 34.4 95 33.2 1.4 NW | 326 4.4 NW | 312 0.00 0.00 33.9 38.2
11/25/21 - 0500 34.7 95 33.4 1.3 NNW | 340 4.4 NNW | 340 0.00 0.00 33.9 38.2
11/25/21 - 0400 34.4 95 33.0 0.5 NNW | 332 3.8 WNW | 299 0.00 0.00 33.9 38.2
11/25/21 - 0300 36.1 93 34.3 0.8 NW | 311 3.4 WNW | 302 0.00 0.00 35.2 38.2
11/25/21 - 0200 36.9 92 34.7 1.0 NW | 324 4.1 NW | 325 0.00 0.00 36.1 38.2
11/25/21 - 0100 37.6 91 35.1 0.9 NNW | 328 4.1 NW | 311 0.00 0.00 36.9 38.2
11/25/21 - 0000 38.6 88 35.2 0.6 NW | 326 3.8 NW | 326 0.00 0.00 37.4 69.4
11/24/21 - 2300 39.9 86 35.9 0.8 NW | 318 3.4 NW | 307 0.00 0.00 39.4 69.4
11/24/21 - 2200 41.4 82 36.4 1.6 NNW | 328 4.1 NW | 320 0.00 0.00 40.6 69.4
11/24/21 - 2100 43.0 79 36.8 1.4 NW | 322 3.8 NNW | 329 0.00 0.00 41.9 69.4
11/24/21 - 2000 44.5 77 37.8 1.6 NW | 325 4.4 N | 351 0.00 0.00 42.8 69.4
11/24/21 - 1900 46.6 76 39.3 1.1 NW | 320 3.4 NW | 316 0.00 0.00 42.8 69.4
11/24/21 - 1800 49.3 75 41.9 0.9 NNW | 329 3.8 N | 0 0.00 0.00 42.8 69.4
11/24/21 - 1700 58.5 55 41.6 0.2 WSW | 237 2.7 SW | 216 0.00 0.00 42.8 69.4
11/24/21 - 1600 67.0 33 37.0 1.9 SSW | 209 5.1 S | 170 0.00 0.00 42.8 69.4
11/24/21 - 1500 68.3 28 34.1 2.6 SSW | 202 7.1 SSW | 202 0.00 0.00 42.8 69.3
11/24/21 - 1400 67.2 29 34.0 2.5 SSE | 163 7.1 SE | 145 0.00 0.00 42.8 68.4
11/24/21 - 1300 65.2 31 33.5 1.6 SSE | 157 5.4 S | 172 0.00 0.00 42.8 66.3
11/24/21 - 1200 63.5 33 33.5 1.8 SSE | 160 5.8 SE | 145 0.00 0.00 42.8 64.4
11/24/21 - 1100 59.6 41 35.8 1.9 SSE | 166 6.4 SE | 146 0.00 0.00 42.8 62.2
11/24/21 - 1000 54.5 46 34.3 0.6 ESE | 113 4.4 ENE | 75 0.00 0.00 42.8 60.5
11/24/21 - 0900 49.7 54 33.8 0.6 N | 10 3.4 NNE | 27 0.00 0.00 42.8 60.5
11/24/21 - 0800 44.4 66 33.9 0.2 SW | 219 2.7 WSW | 253 0.00 0.00 42.8 60.5
11/24/21 - 0700 52.1 38 26.1 3.3 NNW | 339 14.2 N | 0 0.00 0.00 45.3 60.5
11/24/21 - 0600 56.0 27 22.5 5.8 NNW | 342 17.5 NNW | 345 0.00 0.00 54.0 60.5
11/24/21 - 0500 56.7 25 20.8 6.4 NNW | 344 17.5 N | 1 0.00 0.00 55.4 60.5
11/24/21 - 0400 56.2 27 22.2 4.9 NNE | 13 13.8 NNE | 25 0.00 0.00 55.4 60.5
11/24/21 - 0300 57.1 27 23.0 4.3 NNW | 340 13.8 N | 354 0.00 0.00 56.0 60.5
11/24/21 - 0200 59.3 25 23.6 9.8 NNW | 343 20.2 N | 351 0.00 0.00 58.5 60.5
11/24/21 - 0100 60.0 25 23.8 10.2 NNW | 346 20.5 NNW | 338 0.00 0.00 59.3 60.5
Max 69.2 99 56.4 10.2 - 20.5 - 0.00 0.00 59.3 70.0
Avg 52.0 77 43.6 1.5 - 5.0 - 0.00 - - -
Min 34.4 25 20.8 0.0 - 0.0 - 0.00 0.00 33.9 38.2
Total - - - - - - - 0.00 - - -
Tip: Bookmark this page for easy future reference